Time;durP1;ratioP1;P1;durP2;ratioP2;P2;SDS_P1;SDS_P2;PMS_P1;PMS_P2;Temp;Humidity;BMP_temperature;BMP_pressure;BME280_temperature;BME280_humidity;BME280_pressure;Samples;Min_cycle;Max_cycle;Signal;HPM_P1;HPM_P2
2023/10/12 00:01:09;;;;;;;;;;;;;;;;;;4982467;28;19925;-91
2023/10/12 00:03:35;;;;;;;;;;;;;;;;;;4963829;28;19915;-90
2023/10/12 00:06:02;;;;;;;;;;;;;;;;;;4971430;28;20516;-92
2023/10/12 00:08:31;;;;;;;;;;;;;;;;;;4983648;28;19918;-90
2023/10/12 00:10:57;;;;;;;;;;;;;;;;;;4971250;28;19922;-89
2023/10/12 00:13:28;;;;;;;;;;;;;;;;;;4969271;28;19925;-89
2023/10/12 00:15:55;;;;;;;;;;;;;;;;;;4969251;28;19921;-92
2023/10/12 00:18:22;;;;;;;;;;;;;;;;;;4983261;28;20032;-89
2023/10/12 00:20:51;;;;;;;;;;;;;;;;;;4970639;28;20010;-89
2023/10/12 00:23:17;;;;;;;;;;;;;;;;;;4968934;28;19917;-90
2023/10/12 00:25:46;;;;;;;;;;;;;;;;;;4973079;28;19929;-89
2023/10/12 00:28:13;;;;;;;;;;;;;;;;;;4968130;28;19930;-91
2023/10/12 00:30:41;;;;;;;;;;;;;;;;;;4966722;28;19918;-89
2023/10/12 00:33:10;;;;;;;;;;;;;;;;;;4964198;28;19918;-90
2023/10/12 00:35:39;;;;;;;;;;;;;;;;;;4982606;28;19913;-89
2023/10/12 00:38:18;;;;;;;;;;;;;;;;;;4968063;28;19918;-91
2023/10/12 00:40:44;;;;;;;;;;;;;;;;;;4964952;28;19917;-90
2023/10/12 00:43:15;;;;;;;;;;;;;;;;;;4968583;28;19918;-89
2023/10/12 00:45:41;;;;;;;;;;;;;;;;;;4964959;28;19965;-89
2023/10/12 00:48:07;;;;;;;;;;;;;;;;;;4969032;28;20008;-92
2023/10/12 00:50:33;;;;;;;;;;;;;;;;;;4970407;28;19929;-94
2023/10/12 00:53:15;;;;;;;;;;;;;;;;;;4970321;28;19961;-93
2023/10/12 00:55:40;;;;;;;;;;;;;;;;;;4966739;28;20490;-93
2023/10/12 00:58:10;;;;;;;;;;;;;;;;;;4981893;28;19921;-90
2023/10/12 01:00:43;;;;;;;;;;;;;;;;;;4964476;28;19949;-90
2023/10/12 01:03:28;;;;;;;;;;;;;;;;;;4981739;28;20334;-92
2023/10/12 01:06:12;;;;;;;;;;;;;;;;;;4984666;28;20405;-90
2023/10/12 01:08:46;;;;;;;;;;;;;;;;;;4968904;28;19976;-89
2023/10/12 01:11:20;;;;;;;;;;;;;;;;;;4964837;28;19925;-90
2023/10/12 01:13:47;;;;;;;;;;;;;;;;;;4960513;28;19913;-90
2023/10/12 01:16:23;;;;;;;;;;;;;;;;;;4977294;28;19957;-89
2023/10/12 01:18:51;;;;;;;;;;;;;;;;;;4977242;28;19914;-90
2023/10/12 01:21:17;;;;;;;;;;;;;;;;;;4978135;28;19922;-90
2023/10/12 01:23:50;;;;;;;;;;;;;;;;;;4967432;28;20250;-91
2023/10/12 01:26:16;;;;;;;;;;;;;;;;;;4969981;28;20656;-92
2023/10/12 01:28:48;;;;;;;;;;;;;;;;;;4968806;28;19929;-92
2023/10/12 01:31:15;;;;;;;;;;;;;;;;;;4959765;28;19930;-90
2023/10/12 01:33:41;;;;;;;;;;;;;;;;;;4965395;28;19929;-90
2023/10/12 01:36:07;;;;;;;;;;;;;;;;;;4986371;28;19914;-90
2023/10/12 01:38:39;;;;;;;;;;;;;;;;;;4981482;28;20329;-91
2023/10/12 01:41:09;;;;;;;;;;;;;;;;;;4981144;28;19917;-90
2023/10/12 01:43:35;;;;;;;;;;;;;;;;;;4965352;28;19929;-90
2023/10/12 01:46:14;;;;;;;;;;;;;;;;;;4967100;28;20297;-90
2023/10/12 01:48:42;;;;;;;;;;;;;;;;;;4962079;28;19918;-90
2023/10/12 01:51:15;;;;;;;;;;;;;;;;;;4967692;28;19925;-91
2023/10/12 01:53:41;;;;;;;;;;;;;;;;;;4964163;28;20149;-91
2023/10/12 01:56:09;;;;;;;;;;;;;;;;;;4965462;28;19992;-90
2023/10/12 01:58:35;;;;;;;;;;;;;;;;;;4966610;28;19929;-90
2023/10/12 02:01:05;;;;;;;;;;;;;;;;;;4967195;28;19921;-90
2023/10/12 02:03:31;;;;;;;;;;;;;;;;;;4969220;28;19952;-90
2023/10/12 02:06:02;;;;;;;;;;;;;;;;;;4983211;28;19918;-90
2023/10/12 02:08:40;;;;;;;;;;;;;;;;;;4966278;28;19917;-90
2023/10/12 02:11:09;;;;;;;;;;;;;;;;;;4962614;28;19924;-91
2023/10/12 02:13:35;;;;;;;;;;;;;;;;;;4968640;28;19914;-90
2023/10/12 02:16:01;;;;;;;;;;;;;;;;;;4965688;28;20389;-90
2023/10/12 02:18:27;;;;;;;;;;;;;;;;;;4966011;28;20897;-91
2023/10/12 02:23:54;;;;;;;;;;;;;;;;;;4979948;28;20523;-89
2023/10/12 02:26:33;;;;;;;;;;;;;;;;;;4981108;28;20389;-91
2023/10/12 02:29:11;;;;;;;;;;;;;;;;;;4965727;28;19918;-90
2023/10/12 02:31:38;;;;;;;;;;;;;;;;;;4962807;28;20294;-91
2023/10/12 02:34:04;;;;;;;;;;;;;;;;;;4966585;28;20329;-91
2023/10/12 02:36:30;;;;;;;;;;;;;;;;;;4967807;28;19914;-91
2023/10/12 02:39:10;;;;;;;;;;;;;;;;;;4963900;28;19918;-91
2023/10/12 02:41:36;;;;;;;;;;;;;;;;;;4963253;28;19917;-91
2023/10/12 02:44:11;;;;;;;;;;;;;;;;;;4985770;28;20314;-90
2023/10/12 02:46:40;;;;;;;;;;;;;;;;;;4982689;28;20502;-90
2023/10/12 02:49:13;;;;;;;;;;;;;;;;;;4960163;28;20020;-90
2023/10/12 02:51:40;;;;;;;;;;;;;;;;;;4981521;28;19922;-91
2023/10/12 02:54:07;;;;;;;;;;;;;;;;;;4964890;28;19914;-91
2023/10/12 02:56:35;;;;;;;;;;;;;;;;;;4962077;28;19918;-91
2023/10/12 02:59:08;;;;;;;;;;;;;;;;;;4964717;28;19973;-91
2023/10/12 03:01:38;;;;;;;;;;;;;;;;;;4977176;28;19918;-93
2023/10/12 03:04:05;;;;;;;;;;;;;;;;;;4966305;28;20286;-91
2023/10/12 03:06:32;;;;;;;;;;;;;;;;;;4966819;28;19960;-90
2023/10/12 03:09:14;;;;;;;;;;;;;;;;;;4955862;28;20322;-90
2023/10/12 03:11:42;;;;;;;;;;;;;;;;;;4963006;28;19914;-90
2023/10/12 03:14:15;;;;;;;;;;;;;;;;;;4966638;28;19917;-91
2023/10/12 03:16:43;;;;;;;;;;;;;;;;;;4966668;28;20170;-91
2023/10/12 03:19:23;;;;;;;;;;;;;;;;;;4963939;28;20000;-91
2023/10/12 03:21:52;;;;;;;;;;;;;;;;;;4964780;28;19920;-89
2023/10/12 03:24:21;;;;;;;;;;;;;;;;;;4961055;28;19914;-91
2023/10/12 03:29:28;;;;;;;;;;;;;;;;;;4980993;28;20484;-91
2023/10/12 03:31:58;;;;;;;;;;;;;;;;;;4964136;28;20293;-90
2023/10/12 03:36:59;;;;;;;;;;;;;;;;;;4982625;28;20001;-90
2023/10/12 03:44:41;;;;;;;;;;;;;;;;;;4984165;28;19936;-93
2023/10/12 03:47:24;;;;;;;;;;;;;;;;;;4958609;28;19921;-92
2023/10/12 03:52:19;;;;;;;;;;;;;;;;;;4980161;28;19921;-93
2023/10/12 03:54:55;;;;;;;;;;;;;;;;;;4968539;28;19929;-92
2023/10/12 03:57:50;;;;;;;;;;;;;;;;;;4968102;28;19920;-92
2023/10/12 04:02:43;;;;;;;;;;;;;;;;;;4984739;28;19949;-93
2023/10/12 04:08:17;;;;;;;;;;;;;;;;;;4985386;28;19929;-94
2023/10/12 04:14:17;;;;;;;;;;;;;;;;;;4984149;28;19922;-93
2023/10/12 04:18:33;;;;;;;;;;;;;;;;;;4977704;28;19917;-92
2023/10/12 04:20:59;;;;;;;;;;;;;;;;;;4969646;28;19917;-92
2023/10/12 04:26:27;;;;;;;;;;;;;;;;;;4980972;28;20483;-93
2023/10/12 04:29:30;;;;;;;;;;;;;;;;;;4987058;28;19922;-92
2023/10/12 04:31:49;;;;;;;;;;;;;;;;;;4980817;28;20020;-92
2023/10/12 04:34:35;;;;;;;;;;;;;;;;;;4969862;28;19957;-92
2023/10/12 04:37:11;;;;;;;;;;;;;;;;;;4985071;28;20110;-93
2023/10/12 04:39:37;;;;;;;;;;;;;;;;;;4965935;28;19922;-88
2023/10/12 04:44:36;;;;;;;;;;;;;;;;;;4984402;28;19922;-89
2023/10/12 04:47:06;;;;;;;;;;;;;;;;;;4970700;28;19922;-90
2023/10/12 04:55:06;;;;;;;;;;;;;;;;;;4985813;28;20461;-90
2023/10/12 04:57:30;;;;;;;;;;;;;;;;;;4984851;28;19967;-91
2023/10/12 05:07:53;;;;;;;;;;;;;;;;;;4989309;28;19944;-91
2023/10/12 05:10:26;;;;;;;;;;;;;;;;;;4983022;28;19936;-91
2023/10/12 05:12:52;;;;;;;;;;;;;;;;;;4976434;28;20295;-92
2023/10/12 05:15:20;;;;;;;;;;;;;;;;;;4970517;28;19941;-90
2023/10/12 05:17:46;;;;;;;;;;;;;;;;;;4981968;28;20350;-91
2023/10/12 05:20:12;;;;;;;;;;;;;;;;;;4970738;28;19948;-91
2023/10/12 05:22:38;;;;;;;;;;;;;;;;;;4986860;28;19924;-92
2023/10/12 05:25:04;;;;;;;;;;;;;;;;;;4964392;28;19914;-92
2023/10/12 05:27:38;;;;;;;;;;;;;;;;;;4964943;28;20367;-92
2023/10/12 05:30:06;;;;;;;;;;;;;;;;;;4987377;28;19926;-92
2023/10/12 05:32:44;;;;;;;;;;;;;;;;;;4966889;28;20390;-91
2023/10/12 05:35:16;;;;;;;;;;;;;;;;;;4968091;28;19984;-91
2023/10/12 05:37:49;;;;;;;;;;;;;;;;;;4968563;28;19925;-91
2023/10/12 05:40:15;;;;;;;;;;;;;;;;;;4964949;28;19917;-91
2023/10/12 05:42:45;;;;;;;;;;;;;;;;;;4966363;28;19930;-91
2023/10/12 05:45:21;;;;;;;;;;;;;;;;;;4984543;28;19914;-91
2023/10/12 05:47:51;;;;;;;;;;;;;;;;;;4970615;28;19933;-88
2023/10/12 05:50:23;;;;;;;;;;;;;;;;;;4964135;28;19961;-89
2023/10/12 05:52:51;;;;;;;;;;;;;;;;;;4964223;28;20005;-88
2023/10/12 05:55:24;;;;;;;;;;;;;;;;;;4983527;28;19914;-89
2023/10/12 05:57:50;;;;;;;;;;;;;;;;;;4974346;28;20274;-90
2023/10/12 06:00:34;;;;;;;;;;;;;;;;;;4968856;28;20405;-89
2023/10/12 06:03:00;;;;;;;;;;;;;;;;;;4968828;28;19953;-90
2023/10/12 06:05:26;;;;;;;;;;;;;;;;;;4977272;28;19931;-90
2023/10/12 06:08:00;;;;;;;;;;;;;;;;;;4973150;28;19953;-90
2023/10/12 06:10:27;;;;;;;;;;;;;;;;;;4986178;28;19928;-90
2023/10/12 06:12:53;;;;;;;;;;;;;;;;;;4982306;28;20393;-90
2023/10/12 06:15:24;;;;;;;;;;;;;;;;;;4988618;28;20416;-90
2023/10/12 06:17:51;;;;;;;;;;;;;;;;;;4972206;28;19926;-89
2023/10/12 06:20:30;;;;;;;;;;;;;;;;;;4968828;28;20371;-90
2023/10/12 06:22:56;;;;;;;;;;;;;;;;;;4968869;28;20267;-90
2023/10/12 06:25:22;;;;;;;;;;;;;;;;;;4968578;28;19972;-90
2023/10/12 06:27:51;;;;;;;;;;;;;;;;;;4965568;28;19929;-90
2023/10/12 06:30:17;;;;;;;;;;;;;;;;;;4983240;28;19918;-90
2023/10/12 06:32:46;;;;;;;;;;;;;;;;;;4968522;28;20314;-90
2023/10/12 06:53:52;;;;;;;;;;;;;;;;;;4973239;28;20001;-90
2023/10/12 06:58:45;;;;;;;;;;;;;;;;;;4983526;28;20004;-89
2023/10/12 07:01:27;;;;;;;;;;;;;;;;;;4987161;28;19918;-90
2023/10/12 07:03:53;;;;;;;;;;;;;;;;;;4968678;28;19922;-90
2023/10/12 07:06:19;;;;;;;;;;;;;;;;;;4964170;28;20396;-90
2023/10/12 07:08:46;;;;;;;;;;;;;;;;;;4967119;28;19928;-90
2023/10/12 07:11:30;;;;;;;;;;;;;;;;;;4985548;28;22378;-90
2023/10/12 07:13:57;;;;;;;;;;;;;;;;;;4963533;28;20449;-90
2023/10/12 07:16:23;;;;;;;;;;;;;;;;;;4969923;28;19947;-90
2023/10/12 07:18:49;;;;;;;;;;;;;;;;;;4964573;28;19949;-90
2023/10/12 07:21:21;;;;;;;;;;;;;;;;;;4970435;28;20397;-90
2023/10/12 07:23:52;;;;;;;;;;;;;;;;;;4969833;28;20376;-90
2023/10/12 07:26:18;;;;;;;;;;;;;;;;;;4970833;28;20105;-90
2023/10/12 07:28:49;;;;;;;;;;;;;;;;;;4971569;28;19922;-90
2023/10/12 07:41:41;;;;;;;;;;;;;;;;;;4986608;28;19914;-90
2023/10/12 07:44:07;;;;;;;;;;;;;;;;;;4966949;28;19921;-90
2023/10/12 07:46:42;;;;;;;;;;;;;;;;;;4967416;28;19949;-91
2023/10/12 07:52:05;;;;;;;;;;;;;;;;;;4986537;28;20336;-90
2023/10/12 07:55:17;;;;;;;;;;;;;;;;;;4980707;28;19917;-90
2023/10/12 07:57:23;;;;;;;;;;;;;;;;;;4979806;28;19921;-90
2023/10/12 07:59:58;;;;;;;;;;;;;;;;;;4968779;28;20374;-90
2023/10/12 08:10:48;;;;;;;;;;;;;;;;;;4992664;28;19918;-91
2023/10/12 08:13:16;;;;;;;;;;;;;;;;;;4988468;28;20487;-90
2023/10/12 08:23:50;;;;;;;;;;;;;;;;;;4992499;28;20004;-91
2023/10/12 08:26:35;;;;;;;;;;;;;;;;;;4974143;28;19922;-91
2023/10/12 08:29:08;;;;;;;;;;;;;;;;;;4972782;28;19941;-90
2023/10/12 08:31:35;;;;;;;;;;;;;;;;;;4982604;28;19988;-88
2023/10/12 08:34:13;;;;;;;;;;;;;;;;;;4975062;28;20023;-89
2023/10/12 08:37:07;;;;;;;;;;;;;;;;;;4966775;28;20282;-89
2023/10/12 08:39:37;;;;;;;;;;;;;;;;;;4985953;28;19921;-89
2023/10/12 08:44:48;;;;;;;;;;;;;;;;;;4988326;28;19944;-89
2023/10/12 08:47:24;;;;;;;;;;;;;;;;;;4994646;28;20045;-89
2023/10/12 08:49:53;;;;;;;;;;;;;;;;;;4973576;28;19922;-89
2023/10/12 08:52:19;;;;;;;;;;;;;;;;;;4971934;28;19917;-90
2023/10/12 08:54:51;;;;;;;;;;;;;;;;;;4971546;28;19921;-89
2023/10/12 08:57:17;;;;;;;;;;;;;;;;;;4987149;28;19917;-89
2023/10/12 08:59:43;;;;;;;;;;;;;;;;;;4968757;28;20290;-90
2023/10/12 09:02:19;;;;;;;;;;;;;;;;;;4983502;28;19913;-89
2023/10/12 09:04:45;;;;;;;;;;;;;;;;;;4971249;28;19960;-89
2023/10/12 09:07:16;;;;;;;;;;;;;;;;;;4988628;28;21197;-89
2023/10/12 09:10:03;;;;;;;;;;;;;;;;;;4974482;28;19917;-89
2023/10/12 09:12:29;;;;;;;;;;;;;;;;;;4972536;28;20005;-89
2023/10/12 09:14:55;;;;;;;;;;;;;;;;;;4967779;28;19930;-89
2023/10/12 09:17:23;;;;;;;;;;;;;;;;;;4988208;28;20009;-91
2023/10/12 09:19:49;;;;;;;;;;;;;;;;;;4968216;28;19921;-89
2023/10/12 09:22:27;;;;;;;;;;;;;;;;;;4974110;28;19917;-89
2023/10/12 09:24:53;;;;;;;;;;;;;;;;;;4969387;28;20398;-89
2023/10/12 09:27:26;;;;;;;;;;;;;;;;;;4968642;28;20082;-89
2023/10/12 09:29:58;;;;;;;;;;;;;;;;;;4969039;28;20224;-89
2023/10/12 09:32:25;;;;;;;;;;;;;;;;;;4989026;28;19965;-89
2023/10/12 09:37:57;;;;;;;;;;;;;;;;;;4985919;28;20452;-89
2023/10/12 09:40:27;;;;;;;;;;;;;;;;;;4986105;28;20008;-89
2023/10/12 09:42:53;;;;;;;;;;;;;;;;;;4987840;28;19917;-89
2023/10/12 09:45:23;;;;;;;;;;;;;;;;;;4967744;28;19967;-88
2023/10/12 09:47:55;;;;;;;;;;;;;;;;;;4969748;28;19996;-89
2023/10/12 09:50:27;;;;;;;;;;;;;;;;;;4968150;28;20378;-90
2023/10/12 09:53:12;;;;;;;;;;;;;;;;;;4985567;28;20163;-89
2023/10/12 09:55:38;;;;;;;;;;;;;;;;;;4991319;28;19924;-89
2023/10/12 09:58:14;;;;;;;;;;;;;;;;;;4988626;28;19921;-89
2023/10/12 10:00:55;;;;;;;;;;;;;;;;;;4968513;28;19968;-89
2023/10/12 10:03:22;;;;;;;;;;;;;;;;;;4968689;28;20282;-89
2023/10/12 10:06:11;;;;;;;;;;;;;;;;;;4971827;28;19921;-89
2023/10/12 10:08:44;;;;;;;;;;;;;;;;;;4971089;28;19967;-89
2023/10/12 10:11:12;;;;;;;;;;;;;;;;;;4967503;28;19929;-89
2023/10/12 10:13:38;;;;;;;;;;;;;;;;;;4968006;28;19964;-89
2023/10/12 10:16:08;;;;;;;;;;;;;;;;;;4989568;28;19914;-89
2023/10/12 10:18:35;;;;;;;;;;;;;;;;;;4963982;28;19928;-89
2023/10/12 10:21:06;;;;;;;;;;;;;;;;;;4968096;28;19917;-90
2023/10/12 10:23:37;;;;;;;;;;;;;;;;;;4968537;28;20017;-90
2023/10/12 10:29:17;;;;;;;;;;;;;;;;;;4986169;28;20452;-88
2023/10/12 10:31:46;;;;;;;;;;;;;;;;;;4982512;28;19918;-89
2023/10/12 10:34:12;;;;;;;;;;;;;;;;;;4972217;28;20441;-87
2023/10/12 10:36:40;;;;;;;;;;;;;;;;;;4971489;28;19937;-87
2023/10/12 10:41:54;;;;;;;;;;;;;;;;;;4984495;28;20389;-90
2023/10/12 10:44:21;;;;;;;;;;;;;;;;;;4968339;28;20400;-91
2023/10/12 10:46:48;;;;;;;;;;;;;;;;;;4966176;28;20290;-90
2023/10/12 10:49:18;;;;;;;;;;;;;;;;;;4979142;28;19929;-92
2023/10/12 10:51:47;;;;;;;;;;;;;;;;;;4964081;28;19957;-91
2023/10/12 10:54:18;;;;;;;;;;;;;;;;;;4961003;28;19925;-90
2023/10/12 10:56:47;;;;;;;;;;;;;;;;;;4969266;28;19918;-91
2023/10/12 10:59:13;;;;;;;;;;;;;;;;;;4977821;28;19924;-91
2023/10/12 11:02:00;;;;;;;;;;;;;;;;;;4968267;28;19914;-91
2023/10/12 11:07:03;;;;;;;;;;;;;;;;;;4982903;28;19966;-92
2023/10/12 11:09:31;;;;;;;;;;;;;;;;;;4985243;28;19926;-91
2023/10/12 11:11:59;;;;;;;;;;;;;;;;;;4967475;28;20182;-90
2023/10/12 11:14:24;;;;;;;;;;;;;;;;;;4973932;28;19918;-90
2023/10/12 11:16:51;;;;;;;;;;;;;;;;;;4982707;28;19917;-91
2023/10/12 11:19:19;;;;;;;;;;;;;;;;;;4983491;28;19960;-91
2023/10/12 11:21:57;;;;;;;;;;;;;;;;;;4970482;28;20500;-92
2023/10/12 11:24:24;;;;;;;;;;;;;;;;;;4984869;28;19917;-91
2023/10/12 11:26:54;;;;;;;;;;;;;;;;;;4966275;28;20437;-92
2023/10/12 11:29:20;;;;;;;;;;;;;;;;;;4964921;28;19929;-91
2023/10/12 11:31:46;;;;;;;;;;;;;;;;;;4979910;28;20309;-91
2023/10/12 11:34:12;;;;;;;;;;;;;;;;;;4966266;28;19945;-91
2023/10/12 11:36:39;;;;;;;;;;;;;;;;;;4967566;28;19921;-92
2023/10/12 11:39:10;;;;;;;;;;;;;;;;;;4972676;28;19917;-90
2023/10/12 11:41:36;;;;;;;;;;;;;;;;;;4971704;28;20388;-89
2023/10/12 11:44:05;;;;;;;;;;;;;;;;;;4985745;28;19922;-89
2023/10/12 11:46:31;;;;;;;;;;;;;;;;;;4970582;28;20401;-89
2023/10/12 11:49:00;;;;;;;;;;;;;;;;;;4967742;28;20377;-88
2023/10/12 11:51:26;;;;;;;;;;;;;;;;;;4971468;28;19918;-88
2023/10/12 11:53:53;;;;;;;;;;;;;;;;;;4971048;28;19925;-89
2023/10/12 11:56:22;;;;;;;;;;;;;;;;;;4969582;28;19914;-88
2023/10/12 11:58:54;;;;;;;;;;;;;;;;;;4973069;28;19929;-91
2023/10/12 12:01:20;;;;;;;;;;;;;;;;;;4969328;28;19945;-91
2023/10/12 12:03:47;;;;;;;;;;;;;;;;;;4974127;28;19924;-92
2023/10/12 12:06:18;;;;;;;;;;;;;;;;;;4990535;28;20484;-92
2023/10/12 12:08:44;;;;;;;;;;;;;;;;;;4973994;28;20374;-92
2023/10/12 12:11:13;;;;;;;;;;;;;;;;;;4973931;28;19964;-91
2023/10/12 12:13:47;;;;;;;;;;;;;;;;;;4970499;28;20386;-92
2023/10/12 12:16:19;;;;;;;;;;;;;;;;;;4986742;28;20358;-91
2023/10/12 12:18:47;;;;;;;;;;;;;;;;;;4974707;28;19917;-93
2023/10/12 12:21:17;;;;;;;;;;;;;;;;;;4970815;28;20025;-91
2023/10/12 12:23:47;;;;;;;;;;;;;;;;;;4971653;28;19928;-91
2023/10/12 12:26:14;;;;;;;;;;;;;;;;;;4968209;28;19918;-91
2023/10/12 12:28:43;;;;;;;;;;;;;;;;;;4970339;28;20453;-91
2023/10/12 12:31:10;;;;;;;;;;;;;;;;;;4969075;28;19932;-92
2023/10/12 12:33:41;;;;;;;;;;;;;;;;;;4973585;28;19921;-92
2023/10/12 12:36:10;;;;;;;;;;;;;;;;;;4990134;28;19917;-92
2023/10/12 12:41:20;;;;;;;;;;;;;;;;;;4990951;28;19914;-91
2023/10/12 12:43:46;;;;;;;;;;;;;;;;;;4963155;28;20009;-91
2023/10/12 12:46:12;;;;;;;;;;;;;;;;;;4968808;28;20375;-92
2023/10/12 12:48:38;;;;;;;;;;;;;;;;;;4969787;28;20290;-89
2023/10/12 12:51:11;;;;;;;;;;;;;;;;;;4970876;28;19964;-89
2023/10/12 12:53:37;;;;;;;;;;;;;;;;;;4973069;28;19934;-89
2023/10/12 12:56:03;;;;;;;;;;;;;;;;;;4969099;28;20025;-90
2023/10/12 12:58:29;;;;;;;;;;;;;;;;;;4969475;28;19920;-92
2023/10/12 13:00:55;;;;;;;;;;;;;;;;;;4986023;28;19925;-93
2023/10/12 13:03:22;;;;;;;;;;;;;;;;;;4963878;28;19965;-91
2023/10/12 13:05:48;;;;;;;;;;;;;;;;;;4965398;28;19918;-92
2023/10/12 13:08:16;;;;;;;;;;;;;;;;;;4980987;28;19965;-91
2023/10/12 13:10:48;;;;;;;;;;;;;;;;;;4969644;28;19924;-93
2023/10/12 13:13:14;;;;;;;;;;;;;;;;;;4972438;28;19917;-93
2023/10/12 13:15:47;;;;;;;;;;;;;;;;;;4965180;28;19914;-92
2023/10/12 13:18:16;;;;;;;;;;;;;;;;;;4980784;28;19914;-92
2023/10/12 13:20:46;;;;;;;;;;;;;;;;;;4972547;28;20444;-91
2023/10/12 13:23:13;;;;;;;;;;;;;;;;;;4984743;28;19928;-91
2023/10/12 13:25:39;;;;;;;;;;;;;;;;;;4973484;28;19914;-93
2023/10/12 13:28:04;;;;;;;;;;;;;;;;;;4972830;28;19914;-91
2023/10/12 13:30:31;;;;;;;;;;;;;;;;;;4989684;28;20374;-92
2023/10/12 13:32:59;;;;;;;;;;;;;;;;;;4976847;28;20324;-91
2023/10/12 13:35:31;;;;;;;;;;;;;;;;;;4984288;28;19925;-91
2023/10/12 13:37:57;;;;;;;;;;;;;;;;;;4974168;28;19922;-92
2023/10/12 13:40:23;;;;;;;;;;;;;;;;;;4968474;28;19918;-92
2023/10/12 13:42:49;;;;;;;;;;;;;;;;;;4970360;28;19921;-92
2023/10/12 13:45:18;;;;;;;;;;;;;;;;;;4988658;28;19922;-93
2023/10/12 13:47:46;;;;;;;;;;;;;;;;;;4966760;28;19918;-93
2023/10/12 13:50:12;;;;;;;;;;;;;;;;;;4983569;28;19918;-93
2023/10/12 13:52:38;;;;;;;;;;;;;;;;;;4972078;28;20543;-93
2023/10/12 13:55:07;;;;;;;;;;;;;;;;;;4973440;28;19914;-91
2023/10/12 13:57:33;;;;;;;;;;;;;;;;;;4988727;28;19929;-90
2023/10/12 13:59:59;;;;;;;;;;;;;;;;;;4985088;28;19929;-90
2023/10/12 14:02:25;;;;;;;;;;;;;;;;;;4967677;28;19925;-90
2023/10/12 14:04:50;;;;;;;;;;;;;;;;;;4974989;28;19964;-90
2023/10/12 14:07:16;;;;;;;;;;;;;;;;;;4968219;28;19953;-90
2023/10/12 14:09:43;;;;;;;;;;;;;;;;;;4967361;28;20437;-89
2023/10/12 14:12:10;;;;;;;;;;;;;;;;;;4986645;28;19918;-89
2023/10/12 14:14:36;;;;;;;;;;;;;;;;;;4986702;28;20377;-88
2023/10/12 14:17:04;;;;;;;;;;;;;;;;;;4984304;28;19965;-88
2023/10/12 14:19:30;;;;;;;;;;;;;;;;;;4969431;28;20386;-90
2023/10/12 14:21:58;;;;;;;;;;;;;;;;;;4968801;28;19961;-90
2023/10/12 14:24:24;;;;;;;;;;;;;;;;;;4968484;28;19918;-90
2023/10/12 14:26:51;;;;;;;;;;;;;;;;;;4966698;28;20294;-90
2023/10/12 14:29:18;;;;;;;;;;;;;;;;;;4966543;28;20376;-89
2023/10/12 14:31:45;;;;;;;;;;;;;;;;;;4968058;28;19924;-89
2023/10/12 14:34:13;;;;;;;;;;;;;;;;;;4966880;28;19921;-90
2023/10/12 14:36:39;;;;;;;;;;;;;;;;;;4949355;28;19922;-88
2023/10/12 14:39:12;;;;;;;;;;;;;;;;;;4948067;28;19914;-89
2023/10/12 14:41:38;;;;;;;;;;;;;;;;;;4944186;28;20085;-88
2023/10/12 14:44:04;;;;;;;;;;;;;;;;;;4947286;28;20007;-89
2023/10/12 14:46:30;;;;;;;;;;;;;;;;;;4940733;28;20049;-88
2023/10/12 14:48:56;;;;;;;;;;;;;;;;;;4960355;28;19911;-89
2023/10/12 14:51:25;;;;;;;;;;;;;;;;;;4961796;28;19928;-89
2023/10/12 14:53:51;;;;;;;;;;;;;;;;;;4962226;28;19949;-88
2023/10/12 14:56:17;;;;;;;;;;;;;;;;;;4952320;28;19918;-88
2023/10/12 14:58:43;;;;;;;;;;;;;;;;;;4946875;28;19918;-88
2023/10/12 15:01:09;;;;;;;;;;;;;;;;;;4962496;28;20555;-88
2023/10/12 15:03:35;;;;;;;;;;;;;;;;;;4942581;28;19961;-88
2023/10/12 15:06:01;;;;;;;;;;;;;;;;;;4947797;28;20409;-88
2023/10/12 15:08:27;;;;;;;;;;;;;;;;;;4947784;28;19918;-88
2023/10/12 15:10:53;;;;;;;;;;;;;;;;;;4962728;28;19922;-88
2023/10/12 15:13:22;;;;;;;;;;;;;;;;;;4943015;28;19922;-90
2023/10/12 15:15:48;;;;;;;;;;;;;;;;;;4945582;28;19922;-89
2023/10/12 15:18:14;;;;;;;;;;;;;;;;;;4944071;28;19929;-89
2023/10/12 15:20:43;;;;;;;;;;;;;;;;;;4958875;28;20366;-88
2023/10/12 15:23:09;;;;;;;;;;;;;;;;;;4943317;28;19930;-88
2023/10/12 15:25:35;;;;;;;;;;;;;;;;;;4943439;28;19924;-87
2023/10/12 15:28:01;;;;;;;;;;;;;;;;;;4963258;28;19921;-89
2023/10/12 15:30:27;;;;;;;;;;;;;;;;;;4958453;28;19933;-88
2023/10/12 15:32:54;;;;;;;;;;;;;;;;;;4963024;28;20381;-88
2023/10/12 15:35:24;;;;;;;;;;;;;;;;;;4948122;28;19929;-88
2023/10/12 15:37:49;;;;;;;;;;;;;;;;;;4947718;28;19919;-89
2023/10/12 15:40:17;;;;;;;;;;;;;;;;;;4959523;28;20374;-89
2023/10/12 15:42:43;;;;;;;;;;;;;;;;;;4959951;28;19926;-90
2023/10/12 16:33:38;;;;;;;;;;;;;;;;;;1089571;23;20208;-91
2023/10/12 16:36:16;;;;;;;;;;;;;;;;;;4916193;28;19938;-91
2023/10/12 16:38:46;;;;;;;;;;;;;;;;;;4919722;29;19963;-92
2023/10/12 16:41:26;;;;;;;;;;;;;;;;;;4918508;29;19915;-96
2023/10/12 16:43:52;;;;;;;;;;;;;;;;;;4904873;29;19911;-91
2023/10/12 16:46:21;;;;;;;;;;;;;;;;;;4889542;29;19912;-92
2023/10/12 16:48:48;;;;;;;;;;;;;;;;;;4888422;29;19907;-92
2023/10/12 16:51:14;;;;;;;;;;;;;;;;;;4893713;29;19942;-91
2023/10/12 16:53:40;;;;;;;;;;;;;;;;;;4889603;29;19985;-91
2023/10/12 16:56:10;;;;;;;;;;;;;;;;;;4909582;29;19993;-90
2023/10/12 17:03:46;;;;;;;;;;;;;;;;;;4995120;28;19974;-89
2023/10/12 17:06:16;;;;;;;;;;;;;;;;;;4994573;28;19928;-89
2023/10/12 17:08:43;;;;;;;;;;;;;;;;;;4983142;28;19918;-89
2023/10/12 17:11:09;;;;;;;;;;;;;;;;;;4977206;28;19988;-89
2023/10/12 17:13:35;;;;;;;;;;;;;;;;;;4987289;28;19922;-89
2023/10/12 17:16:01;;;;;;;;;;;;;;;;;;5001927;28;19960;-89
2023/10/12 17:18:27;;;;;;;;;;;;;;;;;;4985242;28;19918;-89
2023/10/12 17:20:54;;;;;;;;;;;;;;;;;;4981971;28;19958;-89
2023/10/12 17:23:27;;;;;;;;;;;;;;;;;;4998801;28;19917;-89
2023/10/12 17:25:53;;;;;;;;;;;;;;;;;;4997403;28;20012;-89
2023/10/12 17:28:30;;;;;;;;;;;;;;;;;;;;;
2023/10/12 17:30:59;;;;;;;;;;;;;;;;;;4996179;28;19924;-95
2023/10/12 17:33:25;;;;;;;;;;;;;;;;;;4997093;28;19976;-88
2023/10/12 17:35:51;;;;;;;;;;;;;;;;;;4990590;28;19929;-88
2023/10/12 17:38:18;;;;;;;;;;;;;;;;;;4974198;28;19924;-87
2023/10/12 17:40:46;;;;;;;;;;;;;;;;;;4994758;28;19920;-88
2023/10/12 17:43:13;;;;;;;;;;;;;;;;;;4993276;28;20362;-88
2023/10/12 17:45:41;;;;;;;;;;;;;;;;;;4977723;28;19925;-88
2023/10/12 17:48:07;;;;;;;;;;;;;;;;;;4984834;28;20317;-88
2023/10/12 17:50:34;;;;;;;;;;;;;;;;;;4986116;28;19921;-88
2023/10/12 17:53:02;;;;;;;;;;;;;;;;;;4983125;28;19913;-89
2023/10/12 17:55:28;;;;;;;;;;;;;;;;;;4993442;28;19922;-87
2023/10/12 17:57:54;;;;;;;;;;;;;;;;;;4980839;28;20008;-87
2023/10/12 18:00:21;;;;;;;;;;;;;;;;;;4993866;28;19928;-87
2023/10/12 18:02:47;;;;;;;;;;;;;;;;;;4982902;28;19926;-87
2023/10/12 18:05:13;;;;;;;;;;;;;;;;;;4983688;28;19913;-87
2023/10/12 18:07:40;;;;;;;;;;;;;;;;;;4980903;28;19972;-87
2023/10/12 18:10:06;;;;;;;;;;;;;;;;;;5002904;28;19972;-88
2023/10/12 18:12:32;;;;;;;;;;;;;;;;;;4983258;28;20028;-87
2023/10/12 18:14:58;;;;;;;;;;;;;;;;;;4978470;28;19917;-87
2023/10/12 18:17:27;;;;;;;;;;;;;;;;;;4980152;28;20309;-90
2023/10/12 18:19:56;;;;;;;;;;;;;;;;;;4997498;28;19918;-89
2023/10/12 18:22:23;;;;;;;;;;;;;;;;;;4979437;28;19953;-89
2023/10/12 18:24:49;;;;;;;;;;;;;;;;;;4984366;28;20408;-89
2023/10/12 18:27:15;;;;;;;;;;;;;;;;;;4985583;28;19969;-89
2023/10/12 18:29:41;;;;;;;;;;;;;;;;;;4981885;28;19976;-90
2023/10/12 18:32:07;;;;;;;;;;;;;;;;;;4985735;28;19921;-91
2023/10/12 18:34:35;;;;;;;;;;;;;;;;;;4980834;28;19933;-90
2023/10/12 18:37:01;;;;;;;;;;;;;;;;;;4983520;28;19936;-91
2023/10/12 18:39:26;;;;;;;;;;;;;;;;;;4984021;28;19926;-90
2023/10/12 18:41:53;;;;;;;;;;;;;;;;;;4982551;28;20012;-90
2023/10/12 18:44:20;;;;;;;;;;;;;;;;;;4981789;28;20021;-89
2023/10/12 18:46:46;;;;;;;;;;;;;;;;;;4979551;28;19976;-89
2023/10/12 18:49:18;;;;;;;;;;;;;;;;;;4982599;28;20451;-89
2023/10/12 18:51:44;;;;;;;;;;;;;;;;;;4981671;28;19921;-90
2023/10/12 18:54:10;;;;;;;;;;;;;;;;;;4995287;28;19925;-89
2023/10/12 18:56:38;;;;;;;;;;;;;;;;;;4985231;28;19917;-90
2023/10/12 18:59:07;;;;;;;;;;;;;;;;;;4982215;28;20304;-89
2023/10/12 19:01:33;;;;;;;;;;;;;;;;;;4983671;28;19914;-89
2023/10/12 19:03:59;;;;;;;;;;;;;;;;;;4984146;28;19940;-89
2023/10/12 19:06:25;;;;;;;;;;;;;;;;;;4981823;28;20492;-89
2023/10/12 19:08:53;;;;;;;;;;;;;;;;;;4984579;28;20001;-90
2023/10/12 19:11:19;;;;;;;;;;;;;;;;;;4984994;28;20374;-90
2023/10/12 19:13:50;;;;;;;;;;;;;;;;;;4985832;28;19924;-89
2023/10/12 19:16:18;;;;;;;;;;;;;;;;;;4981718;28;19963;-93
2023/10/12 19:18:44;;;;;;;;;;;;;;;;;;4976255;28;20068;-92
2023/10/12 19:21:10;;;;;;;;;;;;;;;;;;4976363;28;19922;-92
2023/10/12 19:23:36;;;;;;;;;;;;;;;;;;4981758;28;19914;-92
2023/10/12 19:26:03;;;;;;;;;;;;;;;;;;4979347;28;19917;-91
2023/10/12 19:28:29;;;;;;;;;;;;;;;;;;4987933;28;19963;-92
2023/10/12 19:30:56;;;;;;;;;;;;;;;;;;4981727;28;20706;-91
2023/10/12 19:33:22;;;;;;;;;;;;;;;;;;4985098;28;19921;-91
2023/10/12 19:35:48;;;;;;;;;;;;;;;;;;4986630;28;19913;-91
2023/10/12 19:38:14;;;;;;;;;;;;;;;;;;4985064;28;19917;-92
2023/10/12 19:40:47;;;;;;;;;;;;;;;;;;4982568;28;20068;-92
2023/10/12 19:43:14;;;;;;;;;;;;;;;;;;4984532;28;19967;-91
2023/10/12 19:45:41;;;;;;;;;;;;;;;;;;4979522;28;19932;-91